Time;durP1;ratioP1;P1;durP2;ratioP2;P2;SDS_P1;SDS_P2;PMS_P1;PMS_P2;Temp;Humidity;BMP_temperature;BMP_pressure;BME280_temperature;BME280_humidity;BME280_pressure;Samples;Min_cycle;Max_cycle;Signal;HPM_P1;HPM_P2
2021/01/30 00:02:01;;;;;;;21.55;10.28;;;;;;;0.66;86.89;98750.64;1765063;81;21946;-77
2021/01/30 00:05:05;;;;;;;27.05;10.68;;;;;;;0.62;86.77;98751.47;1835217;78;21212;-78
2021/01/30 00:08:10;;;;;;;21.95;9.98;;;;;;;0.59;86.71;98745.03;1764735;81;21296;-78
2021/01/30 00:11:19;;;;;;;21.35;10.70;;;;;;;0.56;86.71;98752.05;1835550;78;21276;-77
2021/01/30 00:14:38;;;;;;;23.75;11.38;;;;;;;0.53;86.74;98764.48;1835483;78;21161;-78
2021/01/30 00:17:43;;;;;;;22.62;11.33;;;;;;;0.49;86.82;98769.30;1834380;78;21205;-77
2021/01/30 00:20:49;;;;;;;29.55;13.38;;;;;;;0.47;86.96;98779.85;1835554;78;21724;-77
2021/01/30 00:23:54;;;;;;;24.75;11.38;;;;;;;0.45;87.06;98785.89;1835372;78;21327;-78
2021/01/30 00:27:02;;;;;;;24.92;12.13;;;;;;;0.47;87.22;98784.77;1834216;78;21315;-78
2021/01/30 00:30:07;;;;;;;25.97;10.43;;;;;;;0.49;87.27;98781.41;1835656;78;21185;-77
2021/01/30 00:33:16;;;;;;;17.67;10.20;;;;;;;0.55;87.21;98789.37;1763884;81;21213;-78
2021/01/30 00:36:22;;;;;;;14.93;9.10;;;;;;;0.55;86.98;98789.37;1833886;78;21815;-78
2021/01/30 00:39:27;;;;;;;30.27;12.95;;;;;;;0.51;86.85;98796.05;1764704;81;21304;-78
2021/01/30 00:42:34;;;;;;;29.00;11.40;;;;;;;0.46;86.85;98802.38;1835476;78;21177;-78
2021/01/30 00:45:40;;;;;;;18.82;9.50;;;;;;;0.44;87.01;98801.69;1835180;78;21324;-78
2021/01/30 00:48:46;;;;;;;24.10;12.65;;;;;;;0.43;87.12;98809.42;1739625;81;21886;-78
2021/01/30 00:51:52;;;;;;;20.62;11.12;;;;;;;0.41;87.16;98814.08;1736949;82;21839;-77
2021/01/30 00:54:57;;;;;;;29.77;12.23;;;;;;;0.39;87.20;98810.71;1743203;82;21304;-77
2021/01/30 00:58:02;;;;;;;21.75;10.88;;;;;;;0.34;87.23;98810.30;1743276;82;21335;-77
2021/01/30 01:01:10;;;;;;;28.92;11.50;;;;;;;0.30;87.29;98815.62;1768636;81;21311;-78
2021/01/30 01:04:16;;;;;;;28.52;13.95;;;;;;;0.24;87.35;98815.23;1770225;81;21799;-79
2021/01/30 01:07:22;;;;;;;22.80;12.55;;;;;;;0.22;87.36;98817.70;1769263;81;21221;-78
2021/01/30 01:10:29;;;;;;;23.27;12.05;;;;;;;0.20;87.41;98812.48;1770514;81;21201;-78
2021/01/30 01:13:35;;;;;;;26.25;13.38;;;;;;;0.22;87.54;98814.51;1770728;81;21192;-77
2021/01/30 01:16:40;;;;;;;27.65;14.33;;;;;;;0.25;87.52;98818.26;1769723;81;21316;-77
2021/01/30 01:19:46;;;;;;;21.07;11.40;;;;;;;0.28;87.42;98821.13;1768724;81;21305;-77
2021/01/30 01:22:52;;;;;;;21.62;12.63;;;;;;;0.32;87.29;98824.38;1768611;81;21312;-78
2021/01/30 01:25:57;;;;;;;18.75;9.93;;;;;;;0.30;87.07;98830.42;1768652;81;21304;-78
2021/01/30 01:29:04;;;;;;;19.05;11.97;;;;;;;0.25;86.93;98833.55;1768944;81;21220;-78
2021/01/30 01:32:09;;;;;;;21.65;12.07;;;;;;;0.19;86.85;98836.84;1770437;81;21189;-77
2021/01/30 01:35:18;;;;;;;21.55;13.28;;;;;;;0.14;86.82;98845.81;1769640;81;21740;-77
2021/01/30 01:38:23;;;;;;;21.45;11.25;;;;;;;0.08;86.81;98839.67;1770510;81;21824;-78
2021/01/30 01:41:29;;;;;;;19.60;12.05;;;;;;;0.02;86.83;98840.27;1770263;81;21316;-78
2021/01/30 01:44:35;;;;;;;24.50;12.82;;;;;;;-0.04;86.90;98837.17;1770215;81;21712;-78
2021/01/30 01:47:49;;;;;;;26.23;14.00;;;;;;;-0.05;86.96;98838.17;1769088;81;21236;-78
2021/01/30 01:50:56;;;;;;;26.12;12.90;;;;;;;-0.02;87.05;98846.42;1793036;80;21304;-77
2021/01/30 01:54:03;;;;;;;22.10;13.25;;;;;;;-0.01;86.99;98836.86;1765187;81;21205;-77
2021/01/30 01:57:19;;;;;;;26.30;14.43;;;;;;;-0.02;86.76;98846.42;1835061;78;21351;-77
2021/01/30 02:00:25;;;;;;;23.20;14.58;;;;;;;-0.01;86.69;98848.95;1764601;81;21217;-78
2021/01/30 02:03:30;;;;;;;20.23;13.15;;;;;;;0.03;86.57;98849.52;1835283;78;21335;-78
2021/01/30 02:06:36;;;;;;;23.95;14.00;;;;;;;0.05;86.59;98846.21;1833936;78;21367;-78
2021/01/30 02:09:42;;;;;;;25.55;15.20;;;;;;;0.08;86.61;98847.74;1835681;78;21296;-78
2021/01/30 02:12:48;;;;;;;25.68;12.10;;;;;;;0.10;86.52;98856.03;1835530;78;21213;-77
2021/01/30 02:15:56;;;;;;;24.87;13.62;;;;;;;0.09;86.35;98848.09;1835739;78;21288;-77
2021/01/30 02:19:31;;;;;;;22.60;15.32;;;;;;;0.06;86.25;98855.13;1836545;78;21307;-77
2021/01/30 02:23:16;;;;;;;25.10;13.90;;;;;;;0.04;86.14;98857.93;1835491;78;21268;-78
2021/01/30 02:27:07;;;;;;;23.18;13.75;;;;;;;0.04;85.95;98857.09;1835613;78;21173;-78
2021/01/30 02:31:06;;;;;;;27.58;14.13;;;;;;;0.05;85.81;98855.63;1835765;78;22448;-77
2021/01/30 02:34:28;;;;;;;21.57;13.10;;;;;;;0.10;85.68;98860.06;1835069;78;21311;-77
2021/01/30 02:37:41;;;;;;;25.77;14.00;;;;;;;0.15;85.44;98861.81;1835001;78;21279;-77
2021/01/30 02:40:49;;;;;;;19.62;12.40;;;;;;;0.11;85.09;98867.13;1765084;81;21359;-77
2021/01/30 02:43:55;;;;;;;20.62;13.25;;;;;;;0.04;84.99;98866.00;1835915;78;21736;-78
2021/01/30 02:47:02;;;;;;;18.30;12.63;;;;;;;-0.01;85.05;98863.74;1835477;78;21300;-78
2021/01/30 02:50:24;;;;;;;22.27;13.98;;;;;;;-0.01;85.19;98861.55;1834665;78;21355;-77
2021/01/30 02:53:34;;;;;;;28.87;16.82;;;;;;;-0.01;85.15;98861.55;1795193;78;21181;-78
2021/01/30 02:56:40;;;;;;;42.23;23.07;;;;;;;-0.04;85.02;98864.55;1835762;78;21276;-77
2021/01/30 02:59:52;;;;;;;39.33;20.85;;;;;;;-0.06;85.13;98861.98;1834042;78;21287;-78
2021/01/30 03:02:57;;;;;;;35.83;22.37;;;;;;;-0.04;85.25;98868.58;1835558;78;21307;-78
2021/01/30 03:06:06;;;;;;;61.48;30.05;;;;;;;-0.04;85.15;98865.39;1763232;81;21233;-78
2021/01/30 03:09:26;;;;;;;67.75;29.77;;;;;;;-0.03;85.38;98864.39;1834497;78;21375;-78
2021/01/30 03:12:47;;;;;;;52.53;27.15;;;;;;;-0.03;85.29;98867.58;1833925;78;21291;-78
2021/01/30 03:16:02;;;;;;;34.20;19.55;;;;;;;0.02;85.61;98876.06;1764662;81;21284;-78
2021/01/30 03:19:17;;;;;;;38.40;20.97;;;;;;;0.08;85.72;98879.51;1834484;78;21296;-78
2021/01/30 03:22:23;;;;;;;38.78;21.57;;;;;;;0.15;85.72;98885.17;1835686;78;21244;-78
2021/01/30 03:25:32;;;;;;;28.67;17.62;;;;;;;0.20;85.61;98874.33;1763275;81;21181;-77
2021/01/30 03:28:39;;;;;;;25.85;16.30;;;;;;;0.20;85.27;98882.39;1834866;78;21957;-78
2021/01/30 03:31:43;;;;;;;23.80;15.40;;;;;;;0.16;85.26;98879.64;1835602;78;21820;-78
2021/01/30 03:34:48;;;;;;;24.07;15.32;;;;;;;0.16;85.44;98876.95;1835227;78;21189;-78
2021/01/30 03:37:55;;;;;;;31.07;17.12;;;;;;;0.16;85.52;98882.33;1835366;78;21517;-78
2021/01/30 03:41:03;;;;;;;27.37;15.70;;;;;;;0.15;85.36;98891.39;1835624;78;21287;-78
2021/01/30 03:44:09;;;;;;;23.65;16.10;;;;;;;0.14;85.18;98910.34;1835596;78;21169;-78
2021/01/30 03:47:15;;;;;;;33.50;17.15;;;;;;;0.10;85.39;98913.00;1835571;78;21291;-77
2021/01/30 03:50:21;;;;;;;23.15;14.70;;;;;;;0.10;85.65;98907.12;1834926;78;21355;-78
2021/01/30 03:53:27;;;;;;;25.00;17.02;;;;;;;0.07;85.64;98899.33;1764729;81;21296;-78
2021/01/30 03:56:33;;;;;;;25.77;15.75;;;;;;;-0.02;85.59;98894.81;1835525;78;21284;-77
2021/01/30 03:59:38;;;;;;;24.85;15.10;;;;;;;-0.07;85.66;98893.90;1834387;78;21295;-77
2021/01/30 04:02:45;;;;;;;25.85;15.60;;;;;;;-0.10;85.69;98897.36;1763289;81;21324;-78
2021/01/30 04:05:51;;;;;;;24.07;14.65;;;;;;;-0.11;85.88;98899.70;1816842;78;21300;-78
2021/01/30 04:08:57;;;;;;;24.18;14.43;;;;;;;-0.11;85.96;98907.27;1834905;78;21847;-78
2021/01/30 04:12:04;;;;;;;23.10;14.20;;;;;;;-0.11;86.13;98906.42;1833987;78;21212;-78
2021/01/30 04:15:12;;;;;;;23.67;14.43;;;;;;;-0.10;86.23;98910.80;1834945;78;21296;-77
2021/01/30 04:18:18;;;;;;;25.27;12.85;;;;;;;-0.13;86.28;98902.55;1835029;78;21303;-78
2021/01/30 04:21:23;;;;;;;22.32;11.55;;;;;;;-0.12;86.37;98902.05;1834460;78;21323;-78
2021/01/30 04:24:29;;;;;;;32.90;17.57;;;;;;;-0.16;86.31;98892.56;1835202;78;22715;-77
2021/01/30 04:27:33;;;;;;;32.08;19.70;;;;;;;-0.24;86.48;98895.11;1833690;78;21827;-78
2021/01/30 04:30:39;;;;;;;23.05;13.25;;;;;;;-0.22;86.99;98899.36;1835398;78;21283;-78
2021/01/30 04:33:46;;;;;;;35.60;26.37;;;;;;;-0.16;87.21;98889.88;1835233;78;21752;-78
2021/01/30 04:36:51;;;;;;;33.98;24.72;;;;;;;-0.14;87.32;98890.10;1835075;78;21902;-78
2021/01/30 04:39:56;;;;;;;42.93;25.65;;;;;;;-0.13;87.41;98887.76;1833733;78;21289;-78
2021/01/30 04:43:29;;;;;;;30.50;20.20;;;;;;;-0.09;87.44;98889.17;1835242;78;21355;-78
2021/01/30 04:47:11;;;;;;;24.25;16.20;;;;;;;-0.08;87.31;98892.70;1835355;78;21842;-78
2021/01/30 04:50:53;;;;;;;23.67;15.58;;;;;;;-0.10;87.21;98898.70;1834266;78;21319;-78
2021/01/30 04:54:39;;;;;;;27.45;16.62;;;;;;;-0.17;86.95;98919.94;1840208;78;21299;-78
2021/01/30 04:58:19;;;;;;;58.87;47.00;;;;;;;-0.41;86.73;98907.42;1772848;81;21190;-78
2021/01/30 05:01:46;;;;;;;71.65;56.28;;;;;;;-0.60;87.21;98904.23;1756169;81;21319;-78
2021/01/30 05:04:57;;;;;;;67.72;46.55;;;;;;;-0.73;87.77;98907.67;1746923;81;21315;-78
2021/01/30 05:08:09;;;;;;;35.60;23.18;;;;;;;-0.85;88.32;98910.49;1771404;81;21803;-78
2021/01/30 05:11:18;;;;;;;26.37;17.12;;;;;;;-0.93;88.82;98891.53;1771234;81;21296;-78
2021/01/30 05:14:24;;;;;;;55.60;40.28;;;;;;;-0.91;89.34;98893.57;1750324;81;21343;-78
2021/01/30 05:17:34;;;;;;;28.92;20.15;;;;;;;-0.84;89.69;98897.41;1771368;81;21295;-78
2021/01/30 05:20:43;;;;;;;42.93;31.30;;;;;;;-0.79;89.89;98903.71;1773516;81;21323;-78
2021/01/30 05:23:51;;;;;;;41.20;25.80;;;;;;;-0.76;89.96;98895.36;1773002;81;21323;-79
2021/01/30 05:27:03;;;;;;;36.55;25.00;;;;;;;-0.72;90.07;98898.63;1772889;81;21420;-78
2021/01/30 05:30:16;;;;;;;40.92;24.07;;;;;;;-0.71;90.15;98907.02;1725462;81;21771;-78
2021/01/30 05:33:29;;;;;;;31.05;22.37;;;;;;;-0.66;90.28;98908.33;1772853;81;21299;-78
2021/01/30 05:37:06;;;;;;;46.60;29.52;;;;;;;-0.60;90.29;98913.63;1772642;81;21303;-78
2021/01/30 05:40:41;;;;;;;30.85;16.85;;;;;;;-0.58;90.37;98909.80;1772064;81;21834;-77
2021/01/30 05:43:57;;;;;;;45.35;26.45;;;;;;;-0.54;90.42;98896.95;1772867;81;21342;-77
2021/01/30 05:47:03;;;;;;;32.93;19.10;;;;;;;-0.44;90.58;98892.92;1772746;81;21228;-78
2021/01/30 05:50:24;;;;;;;44.75;23.60;;;;;;;-0.36;90.71;98895.77;1772267;81;21324;-78
2021/01/30 05:53:33;;;;;;;38.42;21.85;;;;;;;-0.34;90.67;98898.64;1758130;81;21267;-77
2021/01/30 05:56:51;;;;;;;43.20;25.20;;;;;;;-0.32;90.65;98894.00;1743132;82;21891;-78
2021/01/30 06:00:00;;;;;;;35.55;27.00;;;;;;;-0.30;90.62;98893.84;1743464;82;21280;-78
2021/01/30 06:03:25;;;;;;;34.35;19.65;;;;;;;-0.29;90.61;98899.06;1743308;82;21375;-77
2021/01/30 06:06:33;;;;;;;36.60;23.92;;;;;;;-0.25;90.72;98894.27;1770094;81;21705;-78
2021/01/30 06:09:46;;;;;;;32.13;19.80;;;;;;;-0.15;90.83;98902.31;1770761;81;21201;-78
2021/01/30 06:12:53;;;;;;;32.38;17.90;;;;;;;-0.11;90.75;98907.27;1768497;81;21228;-77
2021/01/30 06:16:06;;;;;;;29.07;16.62;;;;;;;-0.07;90.63;98899.27;1770054;81;21259;-78
2021/01/30 06:19:27;;;;;;;29.90;18.50;;;;;;;-0.01;90.64;98897.34;1770213;81;21911;-78
2021/01/30 06:22:33;;;;;;;35.78;19.52;;;;;;;0.10;90.49;98904.43;1770221;81;21332;-78
2021/01/30 06:25:44;;;;;;;31.25;17.62;;;;;;;0.15;90.24;98895.93;1770254;81;21343;-78
2021/01/30 06:28:53;;;;;;;32.03;17.37;;;;;;;0.21;90.10;98898.03;1770200;81;21911;-78
2021/01/30 06:31:58;;;;;;;27.25;15.00;;;;;;;0.19;89.77;98886.09;1768878;81;21359;-78
2021/01/30 06:35:15;;;;;;;33.70;17.60;;;;;;;0.18;89.73;98889.74;1769709;81;21235;-78
2021/01/30 06:38:28;;;;;;;36.45;18.87;;;;;;;0.13;89.78;98889.33;1769650;81;21268;-78
2021/01/30 06:41:37;;;;;;;34.05;18.50;;;;;;;0.07;89.99;98889.92;1769244;81;21351;-78
2021/01/30 06:44:43;;;;;;;34.92;19.65;;;;;;;0.12;90.43;98897.05;1770116;81;21301;-78
2021/01/30 06:47:55;;;;;;;38.85;22.15;;;;;;;0.15;90.68;98896.77;1770199;81;21343;-77
2021/01/30 06:51:00;;;;;;;44.30;23.18;;;;;;;0.15;90.88;98890.05;1771215;81;21296;-77
2021/01/30 06:54:28;;;;;;;36.95;19.90;;;;;;;0.21;91.21;98889.46;1773227;79;21363;-78
2021/01/30 06:57:37;;;;;;;42.20;19.70;;;;;;;0.29;91.34;98898.16;1835509;78;21284;-77
2021/01/30 07:00:44;;;;;;;38.90;19.27;;;;;;;0.38;91.36;98901.83;1835263;78;21815;-77
2021/01/30 07:04:09;;;;;;;39.92;17.55;;;;;;;0.47;91.33;98898.22;1835451;78;21327;-78
2021/01/30 07:07:34;;;;;;;35.45;18.92;;;;;;;0.53;91.25;98899.51;1834033;78;21335;-77
2021/01/30 07:11:14;;;;;;;35.85;17.75;;;;;;;0.55;91.13;98892.97;1835648;78;21307;-78
2021/01/30 07:14:39;;;;;;;40.40;18.55;;;;;;;0.61;91.07;98897.78;1835451;78;21252;-78
2021/01/30 07:18:10;;;;;;;44.58;21.87;;;;;;;0.67;91.00;98890.95;1835210;78;21328;-78
2021/01/30 07:21:30;;;;;;;46.92;20.05;;;;;;;0.74;90.91;98893.39;1834884;78;21463;-78
2021/01/30 07:24:51;;;;;;;42.03;20.02;;;;;;;0.81;90.76;98890.47;1834634;78;21324;-77
2021/01/30 07:28:14;;;;;;;55.15;24.47;;;;;;;0.87;90.59;98889.86;1794144;78;21826;-77
2021/01/30 07:31:39;;;;;;;44.42;21.20;;;;;;;0.95;90.49;98891.31;1834982;78;21803;-78
2021/01/30 07:35:11;;;;;;;48.80;22.42;;;;;;;1.08;90.45;98893.63;1836498;78;21348;-78
2021/01/30 07:38:46;;;;;;;45.38;20.37;;;;;;;1.20;90.27;98885.70;1835356;78;21288;-77
2021/01/30 07:42:01;;;;;;;47.65;23.92;;;;;;;1.32;89.87;98889.52;1834067;78;21288;-78
2021/01/30 07:45:29;;;;;;;47.17;21.60;;;;;;;1.38;89.58;98884.89;1835426;78;21153;-78
2021/01/30 07:48:42;;;;;;;44.03;22.65;;;;;;;1.44;89.38;98883.77;1835982;78;21280;-78
2021/01/30 07:52:07;;;;;;;42.08;23.98;;;;;;;1.53;89.11;98884.70;1835311;78;21337;-78
2021/01/30 07:55:16;;;;;;;45.00;24.67;;;;;;;1.60;88.82;98885.80;1833563;78;21311;-78
2021/01/30 07:58:48;;;;;;;50.25;24.72;;;;;;;1.70;88.37;98883.86;1842627;78;21172;-77
2021/01/30 08:02:07;;;;;;;51.85;24.85;;;;;;;1.75;88.01;98881.55;1843742;78;21536;-78
2021/01/30 08:05:42;;;;;;;77.45;27.37;;;;;;;1.79;87.71;98878.89;1842900;78;21184;-78
2021/01/30 08:08:53;;;;;;;47.90;26.05;;;;;;;1.81;87.44;98876.53;1844326;78;21280;-77
2021/01/30 08:12:28;;;;;;;56.25;29.20;;;;;;;1.84;87.28;98879.77;1843797;78;21185;-77
2021/01/30 08:15:39;;;;;;;54.45;28.52;;;;;;;1.83;86.97;98877.21;1842718;78;21223;-78
2021/01/30 08:18:49;;;;;;;77.62;32.90;;;;;;;1.78;86.90;98874.48;1773016;81;21287;-78
2021/01/30 08:22:02;;;;;;;63.90;31.95;;;;;;;1.81;87.03;98880.58;1772400;81;21367;-78
2021/01/30 08:25:14;;;;;;;74.82;32.35;;;;;;;1.81;87.02;98880.58;1806831;79;21212;-78
2021/01/30 08:28:24;;;;;;;80.75;38.23;;;;;;;1.82;87.06;98874.17;1772725;81;21292;-77
2021/01/30 08:32:03;;;;;;;100.53;41.05;;;;;;;1.84;87.09;98874.88;1788675;80;21394;-78
2021/01/30 08:35:35;;;;;;;93.45;43.17;;;;;;;1.85;87.20;98876.58;1772123;81;21320;-78
2021/01/30 08:38:41;;;;;;;76.97;35.70;;;;;;;1.83;87.27;98871.82;1804434;79;21240;-77
2021/01/30 08:41:50;;;;;;;66.80;32.33;;;;;;;1.83;87.45;98870.47;1772579;81;21715;-77
2021/01/30 08:45:13;;;;;;;53.52;29.70;;;;;;;1.84;87.57;98866.80;1772739;81;21296;-78
2021/01/30 08:48:38;;;;;;;68.90;30.08;;;;;;;1.83;87.65;98863.23;1772737;81;21165;-78
2021/01/30 08:51:44;;;;;;;61.83;30.08;;;;;;;1.81;87.77;98861.70;1772751;81;21966;-78
2021/01/30 08:54:51;;;;;;;59.50;30.97;;;;;;;1.79;87.95;98855.13;1772618;81;21327;-78
2021/01/30 08:57:56;;;;;;;64.67;33.42;;;;;;;1.82;88.22;98852.61;1770169;81;21232;-77
2021/01/30 09:01:04;;;;;;;65.35;33.13;;;;;;;1.88;88.40;98852.81;1772628;81;21300;-78
2021/01/30 09:04:10;;;;;;;52.30;29.65;;;;;;;1.91;88.46;98851.17;1773242;81;21887;-78
2021/01/30 09:07:15;;;;;;;58.30;31.55;;;;;;;2.00;88.61;98842.64;1772669;81;21287;-78
2021/01/30 09:10:33;;;;;;;64.30;33.33;;;;;;;2.05;88.53;98840.31;1772487;81;21229;-77
2021/01/30 09:13:44;;;;;;;55.52;30.65;;;;;;;2.08;88.55;98835.97;1771542;81;21769;-78
2021/01/30 09:17:28;;;;;;;57.38;29.32;;;;;;;2.13;88.66;98838.19;1771300;81;21276;-78
2021/01/30 09:20:36;;;;;;;57.43;30.68;;;;;;;2.15;88.76;98830.77;1772686;81;21899;-78
2021/01/30 09:24:16;;;;;;;61.02;32.55;;;;;;;2.18;89.04;98827.26;1771660;81;21334;-77
2021/01/30 09:27:29;;;;;;;;;;;;;;;2.25;89.20;98822.91;1773789;81;21330;-78
2021/01/30 09:30:51;;;;;;;58.55;29.80;;;;;;;2.35;89.30;98817.90;1772772;81;20243;-77
2021/01/30 09:34:24;;;;;;;66.90;32.85;;;;;;;2.44;89.33;98812.89;1788321;80;21324;-78
2021/01/30 09:37:43;;;;;;;61.00;31.30;;;;;;;2.52;89.34;98813.78;1804954;79;21338;-78
2021/01/30 09:40:48;;;;;;;49.50;26.42;;;;;;;2.66;89.49;98812.83;1772874;81;21847;-78
2021/01/30 09:43:54;;;;;;;63.60;33.67;;;;;;;2.80;89.50;98802.76;1771917;81;21188;-78
2021/01/30 09:47:02;;;;;;;69.30;33.25;;;;;;;2.93;89.38;98803.66;1772878;81;21192;-78
2021/01/30 09:50:12;;;;;;;53.17;27.70;;;;;;;3.08;89.41;98797.95;1772769;81;21177;-78
2021/01/30 09:53:20;;;;;;;52.27;24.82;;;;;;;3.25;89.38;98795.63;1772266;81;21221;-78
2021/01/30 09:56:27;;;;;;;55.98;26.90;;;;;;;3.37;89.57;98783.13;1772289;81;21375;-78
2021/01/30 09:59:34;;;;;;;46.50;24.72;;;;;;;3.43;89.94;98780.59;1762225;81;21383;-78
2021/01/30 10:02:40;;;;;;;49.48;24.57;;;;;;;3.49;90.35;98778.59;1835365;78;21843;-78
2021/01/30 10:05:47;;;;;;;45.58;21.37;;;;;;;3.52;90.68;98782.80;1835432;78;21292;-78
2021/01/30 10:08:52;;;;;;;41.05;21.15;;;;;;;3.49;90.92;98776.39;1835195;78;21235;-78
2021/01/30 10:12:03;;;;;;;42.55;22.22;;;;;;;3.45;91.36;98769.62;1834718;78;21379;-77
2021/01/30 10:15:11;;;;;;;38.25;20.60;;;;;;;3.41;91.97;98773.67;1764817;81;21337;-78
2021/01/30 10:18:22;;;;;;;42.23;20.37;;;;;;;3.41;92.68;98759.66;1835533;78;21816;-77
2021/01/30 10:21:47;;;;;;;42.38;20.50;;;;;;;3.42;93.35;98763.20;1833929;78;21150;-78
2021/01/30 10:24:52;;;;;;;34.98;17.73;;;;;;;3.43;93.96;98755.42;1836498;78;21137;-78
2021/01/30 10:27:57;;;;;;;40.00;19.07;;;;;;;3.46;94.58;98749.17;1836535;78;21281;-78
2021/01/30 10:31:04;;;;;;;29.72;17.12;;;;;;;3.52;94.97;98751.19;1835700;78;21326;-78
2021/01/30 10:34:35;;;;;;;29.72;16.85;;;;;;;3.59;95.29;98748.16;1835239;78;21209;-78
2021/01/30 10:37:55;;;;;;;25.92;15.75;;;;;;;3.64;95.52;98747.66;1835553;78;21272;-77
2021/01/30 10:41:06;;;;;;;25.65;15.13;;;;;;;3.68;95.73;98743.60;1836551;78;21776;-77
2021/01/30 10:44:13;;;;;;;24.43;13.62;;;;;;;3.73;96.03;98739.88;1834205;78;21347;-77
2021/01/30 10:47:19;;;;;;;26.80;13.30;;;;;;;3.77;96.32;98729.05;1834087;78;21150;-78
2021/01/30 10:50:36;;;;;;;23.57;13.28;;;;;;;3.82;96.64;98715.86;1835551;78;21874;-77
2021/01/30 10:53:46;;;;;;;22.95;12.43;;;;;;;3.89;96.87;98720.57;1835267;78;21366;-78
2021/01/30 10:56:51;;;;;;;20.75;11.70;;;;;;;3.94;97.11;98714.13;1764716;81;21323;-77
2021/01/30 11:00:14;;;;;;;22.85;12.47;;;;;;;3.99;97.31;98709.88;1833298;78;21343;-78
2021/01/30 11:03:35;;;;;;;18.67;11.08;;;;;;;4.06;97.43;98708.70;1835668;78;21304;-77
2021/01/30 11:06:56;;;;;;;21.17;11.53;;;;;;;4.10;97.49;98700.58;1835534;78;21276;-78
2021/01/30 11:10:01;;;;;;;19.77;10.80;;;;;;;4.16;97.56;98701.22;1818149;78;21288;-78
2021/01/30 11:13:43;;;;;;;18.20;11.53;;;;;;;4.21;97.55;98697.48;1834623;78;21311;-77
2021/01/30 11:16:49;;;;;;;16.30;9.15;;;;;;;4.24;97.62;98687.66;1834072;78;21284;-77
2021/01/30 11:19:55;;;;;;;21.07;11.40;;;;;;;4.32;97.74;98684.06;1834126;78;21284;-77
2021/01/30 11:23:00;;;;;;;18.50;10.98;;;;;;;4.39;97.82;98676.09;1835677;78;21284;-77
2021/01/30 11:26:08;;;;;;;19.70;11.00;;;;;;;4.42;97.86;98667.60;1764755;81;21289;-77
2021/01/30 11:29:19;;;;;;;19.80;11.50;;;;;;;4.47;97.89;98657.08;1833891;78;21291;-77
2021/01/30 11:32:27;;;;;;;19.57;11.35;;;;;;;4.51;97.92;98656.55;1826891;78;21299;-77
2021/01/30 11:35:40;;;;;;;24.05;11.38;;;;;;;4.57;97.97;98649.60;1763945;81;21708;-77
2021/01/30 11:38:45;;;;;;;19.48;12.07;;;;;;;4.64;98.12;98645.14;1835731;78;21256;-77
2021/01/30 11:41:51;;;;;;;20.00;11.05;;;;;;;4.71;98.20;98642.06;1835646;78;21712;-77
2021/01/30 11:44:56;;;;;;;21.70;12.37;;;;;;;4.74;98.27;98645.75;1834771;78;21796;-77
2021/01/30 11:48:02;;;;;;;23.18;12.20;;;;;;;4.77;98.33;98644.05;1835607;78;21268;-78
2021/01/30 11:51:09;;;;;;;20.75;11.73;;;;;;;4.79;98.40;98646.05;1835619;78;21807;-77
2021/01/30 11:54:14;;;;;;;27.52;13.48;;;;;;;4.84;98.45;98643.64;1834072;78;21839;-77
2021/01/30 11:57:20;;;;;;;22.77;11.38;;;;;;;4.85;98.46;98641.29;1834040;78;21280;-77
2021/01/30 12:00:25;;;;;;;23.27;12.63;;;;;;;4.90;98.48;98637.20;1763494;81;21883;-77
2021/01/30 12:03:35;;;;;;;21.85;10.90;;;;;;;4.92;98.54;98640.05;1835629;78;21284;-77
2021/01/30 12:06:41;;;;;;;25.15;13.22;;;;;;;4.93;98.52;98635.46;1836051;78;21708;-77
2021/01/30 12:09:48;;;;;;;22.58;14.10;;;;;;;4.94;98.51;98637.14;1834161;78;21181;-77
2021/01/30 12:12:54;;;;;;;19.67;12.50;;;;;;;4.95;98.55;98637.50;1834081;78;21807;-78
2021/01/30 12:16:00;;;;;;;18.98;12.33;;;;;;;4.97;98.60;98630.02;1763606;81;21221;-77
2021/01/30 12:19:06;;;;;;;21.57;11.63;;;;;;;5.02;98.74;98628.95;1835547;78;21347;-77
2021/01/30 12:22:11;;;;;;;19.37;12.03;;;;;;;5.07;98.90;98615.70;1835620;78;21200;-77
2021/01/30 12:25:17;;;;;;;21.55;12.00;;;;;;;5.11;99.05;98612.45;1835351;78;21692;-77
2021/01/30 12:28:30;;;;;;;18.60;11.22;;;;;;;5.13;99.16;98608.22;1834166;78;21292;-77
2021/01/30 12:31:36;;;;;;;20.30;11.53;;;;;;;5.15;99.24;98617.00;1764613;81;21288;-77
2021/01/30 12:34:42;;;;;;;19.52;10.08;;;;;;;5.19;99.36;98614.25;1835248;78;21311;-78
2021/01/30 12:37:48;;;;;;;19.80;11.45;;;;;;;5.24;99.44;98606.92;1835559;78;21268;-77
2021/01/30 12:40:54;;;;;;;16.82;9.85;;;;;;;5.26;99.50;98602.98;1835551;78;21154;-78
2021/01/30 12:44:00;;;;;;;22.37;11.10;;;;;;;5.29;99.59;98603.98;1764434;81;21910;-78
2021/01/30 12:47:06;;;;;;;17.27;10.63;;;;;;;5.32;99.63;98611.77;1835538;78;21331;-78
2021/01/30 12:50:15;;;;;;;19.98;10.45;;;;;;;5.35;99.69;98597.81;1764042;81;21355;-77
2021/01/30 12:53:20;;;;;;;17.95;9.63;;;;;;;5.42;99.78;98599.81;1835914;78;21292;-77
2021/01/30 12:56:27;;;;;;;14.47;9.55;;;;;;;5.44;99.81;98595.03;1763267;81;21323;-77
2021/01/30 12:59:32;;;;;;;20.25;10.32;;;;;;;5.49;99.82;98591.25;1834480;78;21883;-78
2021/01/30 13:02:38;;;;;;;18.12;9.38;;;;;;;5.51;99.68;98590.57;1832573;78;21292;-78
2021/01/30 13:05:45;;;;;;;19.30;9.48;;;;;;;5.52;99.59;98586.82;1763918;81;21336;-78
2021/01/30 13:08:57;;;;;;;15.32;9.18;;;;;;;5.56;99.49;98590.85;1835195;78;21157;-78
2021/01/30 13:12:04;;;;;;;14.25;8.13;;;;;;;5.58;99.33;98582.00;1765704;81;21286;-77
2021/01/30 13:15:18;;;;;;;13.93;9.18;;;;;;;5.59;99.12;98577.73;1835053;78;21906;-78
2021/01/30 13:18:27;;;;;;;14.23;8.05;;;;;;;5.61;98.92;98577.57;1745414;81;21287;-78
2021/01/30 13:21:37;;;;;;;17.87;9.18;;;;;;;5.62;98.77;98577.89;1836450;78;21240;-78
2021/01/30 13:24:56;;;;;;;14.98;8.33;;;;;;;5.62;98.64;98581.95;1765476;81;21288;-77
2021/01/30 13:28:09;;;;;;;15.03;7.22;;;;;;;5.61;98.54;98575.70;1834100;78;21280;-78
2021/01/30 13:31:34;;;;;;;12.28;7.55;;;;;;;5.64;98.53;98571.75;1762926;81;21867;-78
2021/01/30 13:34:50;;;;;;;13.65;8.40;;;;;;;5.67;98.48;98576.81;1834469;78;21350;-77
2021/01/30 13:38:04;;;;;;;16.65;8.83;;;;;;;5.68;98.42;98566.28;1833903;78;21177;-78
2021/01/30 13:41:11;;;;;;;18.90;8.68;;;;;;;5.72;98.33;98567.59;1762831;81;21890;-78
2021/01/30 13:44:16;;;;;;;20.05;9.75;;;;;;;5.72;98.24;98567.59;1835280;78;21327;-78
2021/01/30 13:47:27;;;;;;;15.80;8.60;;;;;;;5.73;98.12;98552.99;1763532;81;21864;-78
2021/01/30 13:50:39;;;;;;;16.52;8.95;;;;;;;5.74;98.02;98556.55;1835475;78;21795;-77
2021/01/30 13:54:10;;;;;;;16.85;8.53;;;;;;;5.74;97.87;98561.48;1835423;78;21287;-78
2021/01/30 13:57:20;;;;;;;18.17;8.58;;;;;;;5.75;97.77;98555.54;1763465;81;21351;-78
2021/01/30 14:01:02;;;;;;;16.95;9.15;;;;;;;5.76;97.67;98553.98;1830446;78;21204;-79
2021/01/30 14:04:07;;;;;;;17.52;9.83;;;;;;;5.77;97.51;98558.38;1825800;78;21316;-77
2021/01/30 14:07:14;;;;;;;28.50;10.53;;;;;;;5.79;97.42;98553.62;1827119;78;21842;-78
2021/01/30 14:10:19;;;;;;;20.12;11.70;;;;;;;5.79;97.19;98544.13;1828093;78;21276;-78
2021/01/30 14:13:25;;;;;;;23.55;10.78;;;;;;;5.78;97.04;98547.84;1827847;78;21840;-78
2021/01/30 14:16:31;;;;;;;20.23;10.50;;;;;;;5.77;96.98;98543.45;1826954;78;21284;-78
2021/01/30 14:19:38;;;;;;;24.82;10.58;;;;;;;5.77;96.98;98540.73;1826613;78;22430;-78
2021/01/30 14:22:44;;;;;;;21.25;11.40;;;;;;;5.78;96.97;98534.80;1826505;78;21174;-78
2021/01/30 14:25:51;;;;;;;22.82;10.80;;;;;;;5.79;96.99;98533.27;1828158;78;21756;-78
2021/01/30 14:28:57;;;;;;;22.00;10.35;;;;;;;5.79;96.97;98526.48;1828074;78;21296;-78
2021/01/30 14:32:09;;;;;;;20.82;10.55;;;;;;;5.80;96.99;98533.59;1826806;78;21315;-78
2021/01/30 14:35:16;;;;;;;19.00;9.28;;;;;;;5.82;97.04;98527.97;1827222;78;21917;-78
2021/01/30 14:38:22;;;;;;;16.70;9.68;;;;;;;5.84;97.03;98526.77;1743605;82;21319;-78
2021/01/30 14:41:27;;;;;;;16.45;8.40;;;;;;;5.85;96.97;98523.01;1775351;81;21303;-78
2021/01/30 14:44:35;;;;;;;18.32;9.65;;;;;;;5.88;96.99;98526.71;1744946;82;21182;-78
2021/01/30 14:47:40;;;;;;;19.17;9.90;;;;;;;5.88;96.96;98524.00;1773972;81;21330;-78
2021/01/30 14:50:45;;;;;;;19.77;9.90;;;;;;;5.88;96.95;98513.14;1745010;82;21190;-77
2021/01/30 14:53:53;;;;;;;22.98;10.13;;;;;;;5.91;97.01;98515.98;1775328;81;21323;-77